createdAt,value
2022-10-15T00:02:17.877Z,23.30
2022-10-15T00:05:05.307Z,19.70
2022-10-15T00:07:53.108Z,22.08
2022-10-15T00:10:45.246Z,19.00
2022-10-15T00:13:33.487Z,20.80
2022-10-15T00:16:28.337Z,18.05
2022-10-15T00:19:18.644Z,18.23
2022-10-15T00:24:53.465Z,17.00
2022-10-15T00:27:41.014Z,23.90
2022-10-15T00:33:17.064Z,18.30
2022-10-15T00:36:08.274Z,17.48
2022-10-15T00:39:07.440Z,20.00
2022-10-15T00:41:57.182Z,22.52
2022-10-15T00:44:52.804Z,17.45
2022-10-15T00:47:46.214Z,24.58
2022-10-15T00:50:34.892Z,16.67
2022-10-15T00:53:22.509Z,18.30
2022-10-15T00:56:10.972Z,18.50
2022-10-15T00:58:59.012Z,22.65
2022-10-15T01:01:46.685Z,18.98
2022-10-15T01:07:23.278Z,20.02
2022-10-15T01:10:11.834Z,19.73
2022-10-15T01:13:03.380Z,20.13
2022-10-15T01:15:52.503Z,19.35
2022-10-15T01:18:43.062Z,19.05
2022-10-15T01:21:34.945Z,20.20
2022-10-15T01:24:40.686Z,19.25
2022-10-15T01:27:35.986Z,16.05
2022-10-15T01:30:26.437Z,18.52
2022-10-15T01:33:21.766Z,19.58
2022-10-15T01:36:16.641Z,17.60
2022-10-15T01:39:08.608Z,18.92
2022-10-15T01:41:58.784Z,20.33
2022-10-15T01:44:49.372Z,21.73
2022-10-15T01:48:05.997Z,19.63
2022-10-15T01:50:54.858Z,23.00
2022-10-15T01:53:42.658Z,25.02
2022-10-15T01:56:30.260Z,20.77
2022-10-15T01:59:18.866Z,25.27
2022-10-15T02:02:12.171Z,26.23
2022-10-15T02:05:01.949Z,22.85
2022-10-15T02:07:51.740Z,20.90
2022-10-15T02:13:36.564Z,23.00
2022-10-15T02:16:31.636Z,22.52
2022-10-15T02:19:20.838Z,21.55
2022-10-15T02:22:11.392Z,23.83
2022-10-15T02:25:02.776Z,21.88
2022-10-15T02:27:51.443Z,19.08
2022-10-15T02:30:43.683Z,19.40
2022-10-15T02:33:34.349Z,23.90
2022-10-15T02:36:21.916Z,19.17
2022-10-15T02:39:12.487Z,23.70
2022-10-15T02:42:00.234Z,21.13
2022-10-15T02:44:47.693Z,23.55
2022-10-15T02:47:35.093Z,20.23
2022-10-15T02:50:23.109Z,21.80
2022-10-15T02:53:10.637Z,25.80
2022-10-15T02:56:02.365Z,22.08
2022-10-15T02:58:50.509Z,21.60
2022-10-15T03:01:39.303Z,26.75
2022-10-15T03:04:27.050Z,21.75
2022-10-15T03:07:15.588Z,22.50
2022-10-15T03:10:03.868Z,23.70
2022-10-15T03:12:52.740Z,24.33
2022-10-15T03:15:42.130Z,21.05
2022-10-15T03:18:30.289Z,29.23
2022-10-15T03:21:17.832Z,23.35
2022-10-15T03:24:05.921Z,32.72
2022-10-15T03:26:53.667Z,27.30
2022-10-15T03:32:34.314Z,25.40
2022-10-15T03:35:24.842Z,22.70
2022-10-15T03:38:12.174Z,23.05
2022-10-15T03:41:00.023Z,22.38
2022-10-15T03:43:53.645Z,24.10
2022-10-15T03:46:41.052Z,28.77
2022-10-15T03:49:29.896Z,24.38
2022-10-15T03:52:20.751Z,25.10
2022-10-15T03:55:10.013Z,21.35
2022-10-15T03:57:57.160Z,24.70
2022-10-15T04:00:44.501Z,28.98
2022-10-15T04:06:22.496Z,29.85
2022-10-15T04:09:09.992Z,26.83
2022-10-15T04:12:00.439Z,29.70
2022-10-15T04:14:48.157Z,30.17
2022-10-15T04:17:36.808Z,31.63
2022-10-15T04:20:24.241Z,27.55
2022-10-15T04:23:13.131Z,25.15
2022-10-15T04:26:04.678Z,27.98
2022-10-15T04:28:53.054Z,27.38
2022-10-15T04:31:43.085Z,32.90
2022-10-15T04:34:30.642Z,28.73
2022-10-15T04:40:08.063Z,29.73
2022-10-15T04:42:55.458Z,30.55
2022-10-15T04:48:30.922Z,33.05
2022-10-15T04:51:20.450Z,29.35
2022-10-15T04:54:33.630Z,33.22
2022-10-15T04:57:27.317Z,34.13
2022-10-15T05:00:18.115Z,31.20
2022-10-15T05:03:26.687Z,35.65
2022-10-15T05:06:19.283Z,31.08
2022-10-15T05:09:07.462Z,31.17
2022-10-15T05:11:56.175Z,32.75
2022-10-15T05:14:46.166Z,32.40
2022-10-15T05:17:43.272Z,33.05
2022-10-15T05:20:30.804Z,29.98
2022-10-15T05:23:18.518Z,38.00
2022-10-15T05:26:15.830Z,34.92
2022-10-15T05:29:03.687Z,36.30
2022-10-15T05:31:55.273Z,30.60
2022-10-15T05:34:46.969Z,29.63
2022-10-15T05:37:36.677Z,35.13
2022-10-15T05:40:24.441Z,36.50
2022-10-15T05:43:23.855Z,38.03
2022-10-15T05:46:14.912Z,35.25
2022-10-15T05:49:04.755Z,35.80
2022-10-15T05:52:02.417Z,37.05
2022-10-15T05:55:09.075Z,34.53
2022-10-15T05:57:57.786Z,35.55
2022-10-15T06:00:45.408Z,34.92
2022-10-15T06:03:33.012Z,31.77
2022-10-15T06:06:22.317Z,37.22
2022-10-15T06:09:09.637Z,31.20
2022-10-15T06:11:56.749Z,36.95
2022-10-15T06:14:47.605Z,33.15
2022-10-15T06:17:34.935Z,35.85
2022-10-15T06:23:11.511Z,33.65
2022-10-15T06:25:59.166Z,38.13
2022-10-15T06:28:46.910Z,32.85
2022-10-15T06:31:34.729Z,27.42
2022-10-15T06:34:21.804Z,30.73
2022-10-15T06:37:09.318Z,31.33
2022-10-15T06:39:58.067Z,31.15
2022-10-15T06:42:45.190Z,31.27
2022-10-15T06:45:32.774Z,32.65
2022-10-15T06:48:21.299Z,28.27
2022-10-15T06:51:08.792Z,27.67
2022-10-15T06:53:56.066Z,31.80
2022-10-15T06:56:44.869Z,31.10
2022-10-15T06:59:33.973Z,29.23
2022-10-15T07:02:24.168Z,23.58
2022-10-15T07:05:13.697Z,31.73
2022-10-15T07:08:01.306Z,32.00
2022-10-15T07:10:50.397Z,26.67
2022-10-15T07:16:30.488Z,28.30
2022-10-15T07:19:18.616Z,34.92
2022-10-15T07:22:07.537Z,30.20
2022-10-15T07:24:55.737Z,35.17
2022-10-15T07:27:43.581Z,30.40
2022-10-15T07:30:30.798Z,27.10
2022-10-15T07:33:20.295Z,27.08
2022-10-15T07:36:20.919Z,29.52
2022-10-15T07:39:08.457Z,22.08
2022-10-15T07:44:44.449Z,29.90
2022-10-15T07:47:35.297Z,25.95
2022-10-15T07:50:24.139Z,30.17
2022-10-15T07:53:18.160Z,26.88
2022-10-15T07:56:12.684Z,33.95
2022-10-15T07:59:00.054Z,34.65
2022-10-15T08:01:49.991Z,37.45
2022-10-15T08:04:44.116Z,37.03
2022-10-15T08:07:36.124Z,36.45
2022-10-15T08:10:27.770Z,44.55
2022-10-15T08:13:14.912Z,41.28
2022-10-15T08:16:05.951Z,38.67
2022-10-15T08:18:53.338Z,48.17
2022-10-15T08:21:42.792Z,48.95
2022-10-15T08:24:34.334Z,42.38
2022-10-15T08:27:22.429Z,46.88
2022-10-15T08:30:17.976Z,45.03
2022-10-15T08:35:52.103Z,48.47
2022-10-15T08:38:39.656Z,42.47
2022-10-15T08:41:32.782Z,37.03
2022-10-15T08:44:23.575Z,35.33
2022-10-15T08:47:15.980Z,38.63
2022-10-15T08:50:07.403Z,34.75
2022-10-15T08:52:55.342Z,32.35
2022-10-15T08:55:44.996Z,33.90
2022-10-15T08:58:40.445Z,34.40
2022-10-15T09:01:31.294Z,31.80
2022-10-15T09:04:25.170Z,33.13
2022-10-15T09:07:16.627Z,28.20
2022-10-15T09:10:12.852Z,27.30
2022-10-15T09:13:02.001Z,29.02
2022-10-15T09:15:53.024Z,30.10
2022-10-15T09:18:41.155Z,29.75
2022-10-15T09:21:28.929Z,27.20
2022-10-15T09:24:19.420Z,32.72
2022-10-15T09:27:11.229Z,32.95
2022-10-15T09:30:06.015Z,28.73
2022-10-15T09:32:57.751Z,32.08
2022-10-15T09:35:47.623Z,31.48
2022-10-15T09:38:40.630Z,27.40
2022-10-15T09:41:31.950Z,29.88
2022-10-15T09:44:21.198Z,27.77
2022-10-15T09:47:24.918Z,28.88
2022-10-15T09:50:19.774Z,23.90
2022-10-15T09:53:13.428Z,20.48
2022-10-15T09:56:06.625Z,16.25
2022-10-15T09:58:55.652Z,22.65
2022-10-15T10:01:43.077Z,20.45
2022-10-15T10:04:31.132Z,17.50
2022-10-15T10:07:36.063Z,21.60
2022-10-15T10:10:26.551Z,21.77
2022-10-15T10:13:24.038Z,25.75
2022-10-15T10:16:12.070Z,21.30
2022-10-15T10:19:07.002Z,19.83
2022-10-15T10:22:07.625Z,22.73
2022-10-15T10:24:54.920Z,19.58
2022-10-15T10:27:47.044Z,21.73
2022-10-15T10:30:39.288Z,17.60
2022-10-15T10:33:28.662Z,19.27
2022-10-15T10:36:23.975Z,14.15
2022-10-15T10:39:17.567Z,19.05
2022-10-15T10:42:06.606Z,17.95
2022-10-15T10:44:55.936Z,21.83
2022-10-15T10:47:43.386Z,15.82
2022-10-15T10:50:35.473Z,19.45
2022-10-15T10:53:24.207Z,16.90
2022-10-15T10:56:15.603Z,20.40
2022-10-15T10:59:04.015Z,17.65
2022-10-15T11:01:52.830Z,18.52
2022-10-15T11:04:40.922Z,13.93
2022-10-15T11:07:30.007Z,20.17
2022-10-15T11:10:20.839Z,14.95
2022-10-15T11:13:14.437Z,17.23
2022-10-15T11:16:03.428Z,15.82
2022-10-15T11:18:55.649Z,15.38
2022-10-15T11:21:45.613Z,13.52
2022-10-15T11:24:48.371Z,15.75
2022-10-15T11:27:48.790Z,16.02
2022-10-15T11:30:44.035Z,15.55
2022-10-15T11:33:38.602Z,15.48
2022-10-15T11:36:42.501Z,13.15
2022-10-15T11:39:40.608Z,13.02
2022-10-15T11:42:31.985Z,17.60
2022-10-15T11:45:35.712Z,13.60
2022-10-15T11:48:32.762Z,16.00
2022-10-15T11:51:27.718Z,24.90
2022-10-15T11:54:22.362Z,15.85
2022-10-15T11:57:10.861Z,14.65
2022-10-15T12:00:01.516Z,19.45
2022-10-15T12:02:49.583Z,16.60
2022-10-15T12:05:40.862Z,13.93
2022-10-15T12:08:30.173Z,13.40
2022-10-15T12:11:22.920Z,13.43
2022-10-15T12:14:15.672Z,16.35
2022-10-15T12:17:06.371Z,16.33
2022-10-15T12:19:55.873Z,14.93
2022-10-15T12:22:56.138Z,17.50
2022-10-15T12:25:47.173Z,13.60
2022-10-15T12:28:36.452Z,17.00
2022-10-15T12:31:24.375Z,15.15
2022-10-15T12:34:26.719Z,13.63
2022-10-15T12:37:18.576Z,14.93
2022-10-15T12:40:26.011Z,11.45
2022-10-15T12:43:15.924Z,11.38
2022-10-15T12:46:11.097Z,11.68
2022-10-15T12:48:58.277Z,14.30
2022-10-15T12:51:47.254Z,9.85
2022-10-15T12:54:39.881Z,11.43
2022-10-15T12:57:45.563Z,8.60
2022-10-15T13:00:43.737Z,8.27
2022-10-15T13:06:33.613Z,9.40
2022-10-15T13:09:25.820Z,7.43
2022-10-15T13:12:22.908Z,8.93
2022-10-15T13:15:16.747Z,11.32
2022-10-15T13:18:08.112Z,6.95
2022-10-15T13:20:56.614Z,10.25
2022-10-15T13:23:48.847Z,7.20
2022-10-15T13:26:35.902Z,6.43
2022-10-15T13:29:24.569Z,5.13
2022-10-15T13:32:15.548Z,5.85
2022-10-15T13:35:04.479Z,7.22
2022-10-15T13:37:52.267Z,4.93
2022-10-15T13:40:40.876Z,4.38
2022-10-15T13:43:30.028Z,6.85
2022-10-15T13:46:17.347Z,3.70
2022-10-15T13:49:05.973Z,3.17
2022-10-15T13:51:54.913Z,4.50
2022-10-15T13:54:42.840Z,4.65
2022-10-15T13:57:31.651Z,2.72
2022-10-15T14:00:22.955Z,3.03
2022-10-15T14:03:11.814Z,4.22
2022-10-15T14:06:12.075Z,2.75
2022-10-15T14:09:00.233Z,2.75
2022-10-15T14:11:47.580Z,2.80
2022-10-15T14:14:37.140Z,2.03
2022-10-15T14:17:25.107Z,1.77
2022-10-15T14:20:32.400Z,2.58
2022-10-15T14:23:22.744Z,2.20
2022-10-15T14:26:10.899Z,1.55
2022-10-15T14:29:01.176Z,1.80
2022-10-15T14:31:50.562Z,4.80
2022-10-15T14:34:39.979Z,5.82
2022-10-15T14:37:31.919Z,1.80
2022-10-15T14:40:20.769Z,4.80
2022-10-15T14:43:08.907Z,2.42
2022-10-15T14:45:57.405Z,1.60
2022-10-15T14:48:46.179Z,1.75
2022-10-15T14:51:33.657Z,4.28
2022-10-15T14:54:22.256Z,6.18
2022-10-15T14:57:17.187Z,11.10
2022-10-15T15:00:06.891Z,3.25
2022-10-15T15:02:54.575Z,3.20
2022-10-15T15:08:29.990Z,4.32
2022-10-15T15:11:17.880Z,2.10
2022-10-15T15:14:05.023Z,2.67
2022-10-15T15:16:52.294Z,2.58
2022-10-15T15:19:43.718Z,2.78
2022-10-15T15:22:31.916Z,2.60
2022-10-15T15:25:21.248Z,4.03
2022-10-15T15:28:11.714Z,1.60
2022-10-15T15:31:00.913Z,2.70
2022-10-15T15:33:50.732Z,3.25
2022-10-15T15:36:40.708Z,3.03
2022-10-15T15:39:28.225Z,3.00
2022-10-15T15:42:17.680Z,5.03
2022-10-15T15:45:05.114Z,4.55
2022-10-15T15:50:40.542Z,3.22
2022-10-15T15:53:27.818Z,4.85
2022-10-15T15:56:16.855Z,3.60
2022-10-15T16:02:58.085Z,6.53
2022-10-15T16:08:38.737Z,3.47
2022-10-15T16:11:26.420Z,2.95
2022-10-15T16:14:13.518Z,3.63
2022-10-15T16:17:00.829Z,4.55
2022-10-15T16:19:49.290Z,4.33
2022-10-15T16:22:36.285Z,4.32
2022-10-15T16:25:27.835Z,3.50
2022-10-15T16:28:17.511Z,5.85
2022-10-15T16:31:17.323Z,6.15
2022-10-15T16:34:05.150Z,4.05
2022-10-15T16:36:53.620Z,5.72
2022-10-15T16:39:41.207Z,7.32
2022-10-15T16:42:31.704Z,6.18
2022-10-15T16:45:19.297Z,4.90
2022-10-15T16:48:07.066Z,4.22
2022-10-15T16:51:00.546Z,4.20
2022-10-15T16:53:49.682Z,3.63
2022-10-15T16:56:39.727Z,5.40
2022-10-15T16:59:27.166Z,3.35
2022-10-15T17:02:14.668Z,4.43
2022-10-15T17:05:02.202Z,4.55
2022-10-15T17:07:49.572Z,3.50
2022-10-15T17:10:44.208Z,3.80
2022-10-15T17:13:31.662Z,13.98
2022-10-15T17:16:20.665Z,6.95
2022-10-15T17:19:07.704Z,11.00
2022-10-15T17:21:56.871Z,9.05
2022-10-15T17:24:44.220Z,7.35
2022-10-15T17:27:34.079Z,9.65
2022-10-15T17:30:25.286Z,4.18
2022-10-15T17:33:17.346Z,5.45
2022-10-15T17:36:05.313Z,4.82
2022-10-15T17:38:52.416Z,9.20
2022-10-15T17:41:39.505Z,8.23
2022-10-15T17:44:28.055Z,4.82
2022-10-15T17:47:15.195Z,3.17
2022-10-15T17:50:02.610Z,4.47
2022-10-15T17:52:49.699Z,4.80
2022-10-15T17:55:36.712Z,5.53
2022-10-15T17:58:23.843Z,2.90
2022-10-15T18:01:20.468Z,6.00
2022-10-15T18:04:15.674Z,7.65
2022-10-15T18:07:02.456Z,6.90
2022-10-15T18:09:49.438Z,9.60
2022-10-15T18:12:36.964Z,7.07
2022-10-15T18:15:24.113Z,4.57
2022-10-15T18:18:12.622Z,3.08
2022-10-15T18:21:00.117Z,3.45
2022-10-15T18:26:36.222Z,7.70
2022-10-15T18:29:25.366Z,5.30
2022-10-15T18:32:15.517Z,4.80
2022-10-15T18:35:04.027Z,7.85
2022-10-15T18:37:53.971Z,8.05
2022-10-15T18:40:41.317Z,9.73
2022-10-15T18:43:28.293Z,7.78
2022-10-15T18:46:15.265Z,7.70
2022-10-15T18:49:02.613Z,10.45
2022-10-15T18:51:53.181Z,9.38
2022-10-15T18:54:40.521Z,6.13
2022-10-15T18:57:27.681Z,8.95
2022-10-15T19:00:15.639Z,6.45
2022-10-15T19:03:02.792Z,5.35
2022-10-15T19:05:50.949Z,7.72
2022-10-15T19:08:39.670Z,3.90
2022-10-15T19:11:27.243Z,6.47
2022-10-15T19:14:15.952Z,7.45
2022-10-15T19:17:03.076Z,9.70
2022-10-15T19:19:50.986Z,18.38
2022-10-15T19:25:26.603Z,5.78
2022-10-15T19:28:13.847Z,7.93
2022-10-15T19:31:02.657Z,6.47
2022-10-15T19:33:53.789Z,3.85
2022-10-15T19:36:41.933Z,12.90
2022-10-15T19:39:29.075Z,7.13
2022-10-15T19:42:17.887Z,5.40
2022-10-15T19:45:05.110Z,12.65
2022-10-15T19:47:52.564Z,6.63
2022-10-15T19:50:40.926Z,8.75
2022-10-15T19:53:28.694Z,5.90
2022-10-15T19:56:18.415Z,13.18
2022-10-15T19:59:07.400Z,5.82
2022-10-15T20:01:54.289Z,7.75
2022-10-15T20:04:41.519Z,5.82
2022-10-15T20:07:28.507Z,6.82
2022-10-15T20:10:16.160Z,2.83
2022-10-15T20:13:03.527Z,6.93
2022-10-15T20:15:53.493Z,6.38
2022-10-15T20:18:40.514Z,8.90
2022-10-15T20:21:28.369Z,5.88
2022-10-15T20:24:15.453Z,6.38
2022-10-15T20:27:02.426Z,6.15
2022-10-15T20:29:49.669Z,6.65
2022-10-15T20:32:41.221Z,8.18
2022-10-15T20:35:28.492Z,10.50
2022-10-15T20:38:15.878Z,7.35
2022-10-15T20:41:07.903Z,10.35
2022-10-15T20:43:55.807Z,8.60
2022-10-15T20:46:48.832Z,12.88
2022-10-15T20:49:41.878Z,7.45
2022-10-15T20:52:29.592Z,8.48
2022-10-15T20:55:17.083Z,7.03
2022-10-15T20:58:04.999Z,4.22
2022-10-15T21:00:52.302Z,7.93
2022-10-15T21:03:41.819Z,7.45
2022-10-15T21:06:30.130Z,11.80
2022-10-15T21:09:17.467Z,6.15
2022-10-15T21:12:05.868Z,5.35
2022-10-15T21:14:53.235Z,6.30
2022-10-15T21:17:41.998Z,9.20
2022-10-15T21:20:29.041Z,6.78
2022-10-15T21:23:17.680Z,8.73
2022-10-15T21:26:08.310Z,7.50
2022-10-15T21:28:56.416Z,7.68
2022-10-15T21:31:43.800Z,9.00
2022-10-15T21:34:30.906Z,4.50
2022-10-15T21:37:18.139Z,4.65
2022-10-15T21:40:08.110Z,3.63
2022-10-15T21:42:54.940Z,9.02
2022-10-15T21:45:42.580Z,8.48
2022-10-15T21:48:32.050Z,2.92
2022-10-15T21:51:20.192Z,13.95
2022-10-15T21:56:55.700Z,5.88
2022-10-15T21:59:43.863Z,7.15
2022-10-15T22:02:30.820Z,11.52
2022-10-15T22:05:17.953Z,4.13
2022-10-15T22:08:04.883Z,6.60
2022-10-15T22:10:53.112Z,7.53
2022-10-15T22:13:42.391Z,5.57
2022-10-15T22:16:29.944Z,8.32
2022-10-15T22:19:18.407Z,7.55
2022-10-15T22:22:05.982Z,4.82
2022-10-15T22:24:54.614Z,6.43
2022-10-15T22:27:41.337Z,6.60
2022-10-15T22:30:30.641Z,3.92
2022-10-15T22:33:18.449Z,11.45
2022-10-15T22:36:05.962Z,10.23
2022-10-15T22:41:43.637Z,7.40
2022-10-15T22:44:30.865Z,6.60
2022-10-15T22:47:19.280Z,6.65
2022-10-15T22:50:06.542Z,11.35
2022-10-15T22:52:53.673Z,5.60
2022-10-15T22:55:41.380Z,10.60
2022-10-15T22:58:29.766Z,4.90
2022-10-15T23:01:17.842Z,11.25
2022-10-15T23:04:07.716Z,6.75
2022-10-15T23:06:54.669Z,8.07
2022-10-15T23:09:42.199Z,2.03
2022-10-15T23:12:29.466Z,7.00
2022-10-15T23:15:16.716Z,14.40
2022-10-15T23:18:04.170Z,7.13
2022-10-15T23:20:54.685Z,9.75
2022-10-15T23:23:41.839Z,6.30
2022-10-15T23:29:18.635Z,6.47
2022-10-15T23:32:05.996Z,7.75
2022-10-15T23:34:52.877Z,5.93
2022-10-15T23:37:45.219Z,7.95
2022-10-15T23:40:32.374Z,4.53
2022-10-15T23:43:19.804Z,6.13
2022-10-15T23:46:06.959Z,3.05
2022-10-15T23:48:54.093Z,8.68
2022-10-15T23:51:41.390Z,7.20
2022-10-15T23:54:29.890Z,13.27
2022-10-15T23:57:17.142Z,4.40
